Pewaukee, WI

4:37 PM CDT on September 01, 2014 (GMT -0500)
Timmerman | Change Station
CLOSE
Current Station
Airport
Location: Milwaukee Timmerman,
Elevation: 745 ft
Nearby Weather Stations

Elev 745 ft 43.11 °N, 88.03 °W | Updated 52 minutes ago

Mostly Cloudy
Mostly Cloudy
79 °F
Feels Like 79 °F
N
16
Wind Variable Wind from WSW
Gusts 28 mph

Today
High -- | Low -- °F
--% Chance of Precip.
Yesterday
High -- | Low -- °F
Precip. -- in
6:17 AM 7:27 PM
Waxing Crescent, 44% visible
Pressure 29.72 in
Visibility 10.0 miles
Clouds Scattered Clouds 3900 ft
Mostly Cloudy 5000 ft
Dew Point 61 °F
Humidity 54%
Rainfall 0.03 in
Snow Depth Not available.
UV 3 out of 12
Pollen 6.20 out of 12
Air Quality Not available.
Flu Activity Not available.
METAR KMWC 012045Z 24014G24KT 10SM SCT039 BKN050 26/16 A2972

More Conditions Fewer Conditions

Pressure 29.72 in
Visibility 10.0 miles
Clouds Scattered Clouds 3900 ft
Mostly Cloudy 5000 ft
Dew Point 61 °F
Humidity 54%
Rainfall 0.03 in
Snow Depth Not available.
UV 3 out of 12
Pollen 6.20 out of 12
Air Quality Not available.
Flu Activity Not available.
METAR KMWC 012045Z 24014G24KT 10SM SCT039 BKN050 26/16 A2972

More Conditions Fewer Conditions

10-Day Weather Forecast

Almanac

Astronomy

Sep. 01, 2014 Rise Set
Actual Time 6:17 AM CDT 7:27 PM CDT
Civil Twilight 5:48 AM CDT 7:57 PM CDT
Nautical Twilight 5:13 AM CDT 8:31 PM CDT
Astronomical Twilight 4:36 AM CDT 9:08 PM CDT
Moon 1:13 PM CDT 11:18 PM CDT
Length of Visible Light 14h 08m
Length of Day
13h 10m
Tomorrow will be 2m 49s shorter.
Waxing Crescent, 44% of the Moon is Illuminated
Today
Waxing Crescent
Sep 2
First Quarter
Sep 8
Full
Sep 15
Last Quarter
Sep 24
New

Today's Extremes

State Highs State Lows

Community

WunderPhotos

Upload Photos

1,749,416 photos uploaded!

WunderBlogs® & News

Nearby

Snow Depth

Station Depth Elevation
No new snow has been reported.

Earthquake Activity

City Distance Mag. Time & Date
No recent earthquake activity has been reported nearby.
Minimum magnitude displayed is 2.5.

Coastal Water Temperatures

Place Temperature
No Stations Reporting

Nearby Weather Stations